createdAt,value
2022-12-24T00:01:01.437Z,70.80
2022-12-24T00:03:28.466Z,68.13
2022-12-24T00:05:55.391Z,64.10
2022-12-24T00:08:22.377Z,69.53
2022-12-24T00:10:51.553Z,79.65
2022-12-24T00:13:19.313Z,73.97
2022-12-24T00:15:46.269Z,75.55
2022-12-24T00:18:13.540Z,66.35
2022-12-24T00:20:40.556Z,82.50
2022-12-24T00:23:07.544Z,62.75
2022-12-24T00:25:34.474Z,62.35
2022-12-24T00:28:01.471Z,72.40
2022-12-24T00:30:28.443Z,61.30
2022-12-24T00:32:55.373Z,60.35
2022-12-24T00:35:22.286Z,53.08
2022-12-24T00:37:50.450Z,62.58
2022-12-24T00:40:18.028Z,61.30
2022-12-24T00:42:44.983Z,53.65
2022-12-24T00:45:12.977Z,61.28
2022-12-24T00:47:40.007Z,50.15
2022-12-24T00:50:07.513Z,58.22
2022-12-24T00:52:34.550Z,55.42
2022-12-24T00:55:01.380Z,54.17
2022-12-24T00:57:28.356Z,64.88
2022-12-24T00:59:55.196Z,51.70
2022-12-24T01:02:22.747Z,43.58
2022-12-24T01:05:08.658Z,52.80
2022-12-24T01:07:36.317Z,48.10
2022-12-24T01:10:03.910Z,41.67
2022-12-24T01:12:31.346Z,52.30
2022-12-24T01:14:58.179Z,43.83
2022-12-24T01:17:25.157Z,50.65
2022-12-24T01:19:52.074Z,47.67
2022-12-24T01:22:20.125Z,49.03
2022-12-24T01:24:47.102Z,51.33
2022-12-24T01:27:14.035Z,55.55
2022-12-24T01:29:41.026Z,54.20
2022-12-24T01:32:07.917Z,60.78
2022-12-24T01:34:34.988Z,59.45
2022-12-24T01:37:02.172Z,55.90
2022-12-24T01:39:29.141Z,63.13
2022-12-24T01:42:15.127Z,64.43
2022-12-24T01:44:44.193Z,61.40
2022-12-24T01:47:19.120Z,75.88
2022-12-24T01:49:50.681Z,67.18
2022-12-24T01:52:21.591Z,77.20
2022-12-24T01:54:55.058Z,79.15
2022-12-24T01:57:30.208Z,58.40
2022-12-24T02:00:02.699Z,69.70
2022-12-24T02:02:35.352Z,66.63
2022-12-24T02:05:08.198Z,82.93
2022-12-24T02:07:35.982Z,80.75
2022-12-24T02:10:04.737Z,67.68
2022-12-24T02:12:35.235Z,75.20
2022-12-24T02:15:02.795Z,62.55
2022-12-24T02:17:48.346Z,62.22
2022-12-24T02:20:49.737Z,63.08
2022-12-24T02:23:38.620Z,66.97
2022-12-24T02:26:23.878Z,68.65
2022-12-24T02:28:53.632Z,74.25
2022-12-24T02:31:39.335Z,73.13
2022-12-24T02:34:32.961Z,69.88
2022-12-24T02:37:24.595Z,61.45
2022-12-24T02:40:15.773Z,68.95
2022-12-24T02:42:47.764Z,77.68
2022-12-24T02:45:22.704Z,66.40
2022-12-24T02:47:51.513Z,59.92
2022-12-24T02:50:18.972Z,63.15
2022-12-24T02:52:47.912Z,62.72
2022-12-24T02:55:19.902Z,73.28
2022-12-24T02:58:01.933Z,70.72
2022-12-24T03:00:46.763Z,66.32
2022-12-24T03:03:42.736Z,74.10
2022-12-24T03:06:53.554Z,57.72
2022-12-24T03:09:53.015Z,69.47
2022-12-24T03:12:38.922Z,64.13
2022-12-24T03:17:40.979Z,62.70
2022-12-24T03:20:10.675Z,59.53
2022-12-24T03:22:38.720Z,62.60
2022-12-24T03:25:06.153Z,70.97
2022-12-24T03:27:34.867Z,64.13
2022-12-24T03:30:03.436Z,66.05
2022-12-24T03:32:32.117Z,72.68
2022-12-24T03:34:59.296Z,58.05
2022-12-24T03:37:27.210Z,79.85
2022-12-24T03:39:54.222Z,70.45
2022-12-24T03:42:21.042Z,59.45
2022-12-24T03:44:48.038Z,71.68
2022-12-24T03:47:14.932Z,77.60
2022-12-24T03:49:41.877Z,57.25
2022-12-24T03:52:08.752Z,65.75
2022-12-24T03:54:35.661Z,59.55
2022-12-24T03:57:02.525Z,56.85
2022-12-24T03:59:29.461Z,53.08
2022-12-24T04:01:56.668Z,53.80
2022-12-24T04:04:23.835Z,68.65
2022-12-24T04:06:51.127Z,64.03
2022-12-24T04:09:18.019Z,58.75
2022-12-24T04:11:44.864Z,66.18
2022-12-24T04:14:11.907Z,52.13
2022-12-24T04:16:38.893Z,54.88
2022-12-24T04:19:05.846Z,59.85
2022-12-24T04:21:32.757Z,59.28
2022-12-24T04:24:00.390Z,58.50
2022-12-24T04:26:27.293Z,57.10
2022-12-24T04:28:54.258Z,56.47
2022-12-24T04:31:21.122Z,70.22
2022-12-24T04:33:48.294Z,63.80
2022-12-24T04:36:17.409Z,58.45
2022-12-24T04:38:44.812Z,56.67
2022-12-24T04:41:23.956Z,71.45
2022-12-24T04:43:53.835Z,71.88
2022-12-24T04:46:26.172Z,73.45
2022-12-24T04:48:55.024Z,74.93
2022-12-24T04:51:23.591Z,72.45
2022-12-24T04:53:50.751Z,70.90
2022-12-24T04:56:20.807Z,70.28
2022-12-24T04:58:48.147Z,69.05
2022-12-24T05:01:20.015Z,67.53
2022-12-24T05:03:47.545Z,69.18
2022-12-24T05:06:16.864Z,63.55
2022-12-24T05:08:44.416Z,65.35
2022-12-24T05:11:14.357Z,55.72
2022-12-24T05:13:47.005Z,67.00
2022-12-24T05:16:16.881Z,76.72
2022-12-24T05:18:44.032Z,70.15
2022-12-24T05:21:14.770Z,66.18
2022-12-24T05:24:00.120Z,64.57
2022-12-24T05:26:38.222Z,72.53
2022-12-24T05:29:06.639Z,64.97
2022-12-24T05:31:34.070Z,54.35
2022-12-24T05:34:02.219Z,70.28
2022-12-24T05:36:29.118Z,57.70
2022-12-24T05:38:56.079Z,59.63
2022-12-24T05:41:23.131Z,64.70
2022-12-24T05:43:50.504Z,62.55
2022-12-24T05:46:20.733Z,64.45
2022-12-24T05:48:48.903Z,68.28
2022-12-24T05:51:19.649Z,54.50
2022-12-24T05:53:47.788Z,43.72
2022-12-24T05:56:17.875Z,54.47
2022-12-24T05:58:45.329Z,60.65
2022-12-24T06:01:12.739Z,57.20
2022-12-24T06:03:39.800Z,53.85
2022-12-24T06:06:10.676Z,54.53
2022-12-24T06:08:38.382Z,60.70
2022-12-24T06:11:08.285Z,65.18
2022-12-24T06:13:35.798Z,58.25
2022-12-24T06:16:04.910Z,59.22
2022-12-24T06:18:33.561Z,48.03
2022-12-24T06:21:01.023Z,56.00
2022-12-24T06:23:30.858Z,54.08
2022-12-24T06:26:01.033Z,58.22
2022-12-24T06:28:32.094Z,59.25
2022-12-24T06:31:02.988Z,61.30
2022-12-24T06:33:34.924Z,49.67
2022-12-24T06:36:02.108Z,48.80
2022-12-24T06:38:31.218Z,56.50
2022-12-24T06:40:58.236Z,50.42
2022-12-24T06:43:25.180Z,57.70
2022-12-24T06:45:52.112Z,64.03
2022-12-24T06:48:18.951Z,56.92
2022-12-24T06:50:45.944Z,47.97
2022-12-24T06:53:13.007Z,51.63
2022-12-24T06:55:40.192Z,56.33
2022-12-24T06:58:07.112Z,56.83
2022-12-24T07:00:34.449Z,49.60
2022-12-24T07:03:01.633Z,50.13
2022-12-24T07:05:28.982Z,57.55
2022-12-24T07:07:56.204Z,62.58
2022-12-24T07:10:23.331Z,60.17
2022-12-24T07:12:50.352Z,50.80
2022-12-24T07:15:17.609Z,55.45
2022-12-24T07:17:44.802Z,61.38
2022-12-24T07:20:16.996Z,56.10
2022-12-24T07:22:43.930Z,51.83
2022-12-24T07:25:11.812Z,53.60
2022-12-24T07:27:39.529Z,62.45
2022-12-24T07:30:07.541Z,59.33
2022-12-24T07:32:34.414Z,58.85
2022-12-24T07:35:01.498Z,47.88
2022-12-24T07:37:28.500Z,48.70
2022-12-24T07:39:56.112Z,52.78
2022-12-24T07:42:23.188Z,73.57
2022-12-24T07:44:50.178Z,65.03
2022-12-24T07:47:17.290Z,63.10
2022-12-24T07:49:44.147Z,57.28
2022-12-24T07:52:11.106Z,62.95
2022-12-24T07:54:38.024Z,59.42
2022-12-24T07:57:05.024Z,56.75
2022-12-24T07:59:31.863Z,60.78
2022-12-24T08:01:58.989Z,55.65
2022-12-24T08:04:26.517Z,68.13
2022-12-24T08:06:54.178Z,73.95
2022-12-24T08:09:24.390Z,57.00
2022-12-24T08:11:52.633Z,64.18
2022-12-24T08:14:20.470Z,66.55
2022-12-24T08:16:48.184Z,77.18
2022-12-24T08:19:15.665Z,76.50
2022-12-24T08:21:43.277Z,51.55
2022-12-24T08:24:10.808Z,62.78
2022-12-24T08:26:38.351Z,59.22
2022-12-24T08:29:08.185Z,66.95
2022-12-24T08:31:36.957Z,69.03
2022-12-24T08:34:08.318Z,63.10
2022-12-24T08:36:35.932Z,70.75
2022-12-24T08:39:03.961Z,61.42
2022-12-24T08:41:32.098Z,66.57
2022-12-24T08:43:59.823Z,63.40
2022-12-24T08:46:27.144Z,69.57
2022-12-24T08:48:54.061Z,74.57
2022-12-24T08:51:21.024Z,65.80
2022-12-24T08:53:48.127Z,69.50
2022-12-24T08:56:15.087Z,63.45
2022-12-24T08:58:42.148Z,70.75
2022-12-24T09:01:15.444Z,63.55
2022-12-24T09:03:43.143Z,49.53
2022-12-24T09:06:10.767Z,75.47
2022-12-24T09:08:37.860Z,61.33
2022-12-24T09:11:10.182Z,64.22
2022-12-24T09:13:37.614Z,62.35
2022-12-24T09:16:04.974Z,66.88
2022-12-24T09:18:31.920Z,66.00
2022-12-24T09:21:00.199Z,79.38
2022-12-24T09:23:27.264Z,59.08
2022-12-24T09:25:54.474Z,64.53
2022-12-24T09:28:22.019Z,65.63
2022-12-24T09:31:00.222Z,73.47
2022-12-24T09:33:28.966Z,74.38
2022-12-24T09:35:56.028Z,58.75
2022-12-24T09:38:23.198Z,65.28
2022-12-24T09:40:51.057Z,64.40
2022-12-24T09:43:22.214Z,66.28
2022-12-24T09:46:21.588Z,70.15
2022-12-24T09:48:53.808Z,64.18
2022-12-24T09:51:32.133Z,71.20
2022-12-24T09:54:17.846Z,66.03
2022-12-24T09:56:47.510Z,60.25
2022-12-24T09:59:23.223Z,77.70
2022-12-24T10:01:53.776Z,72.82
2022-12-24T10:04:27.055Z,76.07
2022-12-24T10:07:32.827Z,70.68
2022-12-24T10:10:11.847Z,69.97
2022-12-24T10:12:50.029Z,51.55
2022-12-24T10:15:19.934Z,74.03
2022-12-24T10:17:55.427Z,67.57
2022-12-24T10:20:53.972Z,59.90
2022-12-24T10:23:42.578Z,67.75
2022-12-24T10:26:50.161Z,61.63
2022-12-24T10:29:34.464Z,57.60
2022-12-24T10:32:10.431Z,55.60
2022-12-24T10:34:43.832Z,74.28
2022-12-24T10:37:24.917Z,54.67
2022-12-24T10:39:53.087Z,64.68
2022-12-24T10:42:21.886Z,53.13
2022-12-24T10:44:52.896Z,62.00
2022-12-24T10:47:22.238Z,50.35
2022-12-24T10:50:04.187Z,51.90
2022-12-24T10:52:35.737Z,63.88
2022-12-24T10:55:11.542Z,52.70
2022-12-24T10:57:40.367Z,52.70
2022-12-24T11:00:18.113Z,56.42
2022-12-24T11:02:46.721Z,52.55
2022-12-24T11:05:32.016Z,49.72
2022-12-24T11:08:13.979Z,49.42
2022-12-24T11:10:45.117Z,61.90
2022-12-24T11:13:37.974Z,60.10
2022-12-24T11:16:15.600Z,44.78
2022-12-24T11:18:52.388Z,47.17
2022-12-24T11:21:32.999Z,41.03
2022-12-24T11:24:12.657Z,50.70
2022-12-24T11:26:41.628Z,46.05
2022-12-24T11:29:23.769Z,44.03
2022-12-24T11:31:53.025Z,39.85
2022-12-24T11:34:27.593Z,44.05
2022-12-24T11:37:14.284Z,44.33
2022-12-24T11:39:51.469Z,52.63
2022-12-24T11:42:32.948Z,42.97
2022-12-24T11:45:02.196Z,52.30
2022-12-24T11:47:38.092Z,46.08
2022-12-24T11:50:27.045Z,48.83
2022-12-24T11:53:07.449Z,48.78
2022-12-24T11:56:02.556Z,51.72
2022-12-24T11:58:35.553Z,32.75
2022-12-24T12:01:35.438Z,39.97
2022-12-24T12:04:10.617Z,40.80
2022-12-24T12:06:55.610Z,56.80
2022-12-24T12:09:27.515Z,35.03
2022-12-24T12:12:21.520Z,49.03
2022-12-24T12:14:57.170Z,47.58
2022-12-24T12:17:39.187Z,53.65
2022-12-24T12:20:18.173Z,45.45
2022-12-24T12:23:00.127Z,53.53
2022-12-24T12:25:37.370Z,48.10
2022-12-24T12:28:11.947Z,44.65
2022-12-24T12:30:42.977Z,55.83
2022-12-24T12:33:15.635Z,47.95
2022-12-24T12:35:43.806Z,51.03
2022-12-24T12:38:15.188Z,49.83
2022-12-24T12:40:48.011Z,49.95
2022-12-24T12:43:45.708Z,55.40
2022-12-24T12:46:45.018Z,52.38
2022-12-24T12:49:37.160Z,53.42
2022-12-24T12:52:10.228Z,46.20
2022-12-24T12:55:02.525Z,49.45
2022-12-24T12:57:35.977Z,45.70
2022-12-24T13:00:16.745Z,43.45
2022-12-24T13:03:11.148Z,52.13
2022-12-24T13:06:03.896Z,50.72
2022-12-24T13:08:48.806Z,53.85
2022-12-24T13:11:30.789Z,50.15
2022-12-24T13:14:06.257Z,55.75
2022-12-24T13:19:37.982Z,54.45
2022-12-24T13:22:05.780Z,54.13
2022-12-24T13:24:33.705Z,47.65
2022-12-24T13:27:03.750Z,47.08
2022-12-24T13:29:40.331Z,44.88
2022-12-24T13:32:22.421Z,55.63
2022-12-24T13:35:00.583Z,40.45
2022-12-24T13:37:34.430Z,45.55
2022-12-24T13:40:09.976Z,43.72
2022-12-24T13:45:31.996Z,44.92
2022-12-24T13:48:01.312Z,43.25
2022-12-24T13:50:53.515Z,48.55
2022-12-24T13:53:32.525Z,48.22
2022-12-24T13:56:16.661Z,47.40
2022-12-24T13:58:55.100Z,42.90
2022-12-24T14:01:34.851Z,44.03
2022-12-24T14:04:04.975Z,45.15
2022-12-24T14:06:36.645Z,45.47
2022-12-24T14:09:19.312Z,46.03
2022-12-24T14:12:16.111Z,47.92
2022-12-24T14:14:43.462Z,42.33
2022-12-24T14:17:19.441Z,47.90
2022-12-24T14:20:08.826Z,54.30
2022-12-24T14:22:44.779Z,44.08
2022-12-24T14:25:23.427Z,47.75
2022-12-24T14:28:12.951Z,40.45
2022-12-24T14:30:39.883Z,41.55
2022-12-24T14:33:26.678Z,45.03
2022-12-24T14:35:53.610Z,47.00
2022-12-24T14:38:22.913Z,46.13
2022-12-24T14:41:01.173Z,47.15
2022-12-24T14:43:44.606Z,52.60
2022-12-24T14:46:37.021Z,41.33
2022-12-24T14:49:06.594Z,46.33
2022-12-24T14:52:00.691Z,38.80
2022-12-24T14:54:39.356Z,48.70
2022-12-24T14:57:12.526Z,50.17
2022-12-24T14:59:51.354Z,53.67
2022-12-24T15:02:36.993Z,41.25
2022-12-24T15:05:13.533Z,45.83
2022-12-24T15:08:04.494Z,43.33
2022-12-24T15:10:39.788Z,38.35
2022-12-24T15:13:46.921Z,47.78
2022-12-24T15:16:22.096Z,36.38
2022-12-24T15:18:55.148Z,41.53
2022-12-24T15:21:30.932Z,42.47
2022-12-24T15:23:57.971Z,33.35
2022-12-24T15:26:28.938Z,43.38
2022-12-24T15:29:03.238Z,44.85
2022-12-24T15:31:31.549Z,48.78
2022-12-24T15:33:59.555Z,51.03
2022-12-24T15:36:34.450Z,43.50
2022-12-24T15:39:05.274Z,44.58
2022-12-24T15:41:38.446Z,48.25
2022-12-24T15:44:05.517Z,58.80
2022-12-24T15:46:33.148Z,54.65
2022-12-24T15:49:02.809Z,61.75
2022-12-24T15:51:37.950Z,45.22
2022-12-24T15:54:14.047Z,49.65
2022-12-24T15:56:45.935Z,44.80
2022-12-24T15:59:18.837Z,45.17
2022-12-24T16:01:47.639Z,56.63
2022-12-24T16:04:24.319Z,57.88
2022-12-24T16:06:59.281Z,46.88
2022-12-24T16:09:46.159Z,52.55
2022-12-24T16:12:23.442Z,44.47
2022-12-24T16:14:55.202Z,51.63
2022-12-24T16:17:25.249Z,45.97
2022-12-24T16:19:54.944Z,53.92
2022-12-24T16:22:32.608Z,55.78
2022-12-24T16:25:00.993Z,54.65
2022-12-24T16:27:27.919Z,57.45
2022-12-24T16:29:54.869Z,45.15
2022-12-24T16:32:36.457Z,42.15
2022-12-24T16:35:05.691Z,38.55
2022-12-24T16:37:32.543Z,47.22
2022-12-24T16:40:00.749Z,46.70
2022-12-24T16:42:46.205Z,64.63
2022-12-24T16:45:13.149Z,110.53
2022-12-24T16:47:43.179Z,61.67
2022-12-24T16:50:16.774Z,52.22
2022-12-24T16:52:43.901Z,51.00
2022-12-24T16:55:14.014Z,55.55
2022-12-24T16:57:42.302Z,49.33
2022-12-24T17:00:29.543Z,59.70
2022-12-24T17:02:56.732Z,51.38
2022-12-24T17:05:24.009Z,53.63
2022-12-24T17:07:51.287Z,58.83
2022-12-24T17:10:18.436Z,51.65
2022-12-24T17:12:45.508Z,50.40
2022-12-24T17:15:12.720Z,51.75
2022-12-24T17:17:39.636Z,44.22
2022-12-24T17:20:07.600Z,57.20
2022-12-24T17:22:35.553Z,45.97
2022-12-24T17:25:02.543Z,44.60
2022-12-24T17:27:29.792Z,51.85
2022-12-24T17:29:56.768Z,54.88
2022-12-24T17:32:24.983Z,52.60
2022-12-24T17:34:51.980Z,40.70
2022-12-24T17:37:19.115Z,59.28
2022-12-24T17:39:46.021Z,59.28
2022-12-24T17:42:12.919Z,63.33
2022-12-24T17:44:39.815Z,65.43
2022-12-24T17:47:06.753Z,63.08
2022-12-24T17:49:33.704Z,53.92
2022-12-24T17:52:00.868Z,53.42
2022-12-24T17:54:27.859Z,53.33
2022-12-24T17:56:54.759Z,59.47
2022-12-24T17:59:22.059Z,58.60
2022-12-24T18:01:49.072Z,61.05
2022-12-24T18:04:16.083Z,67.97
2022-12-24T18:06:49.031Z,53.53
2022-12-24T18:09:17.292Z,62.65
2022-12-24T18:11:44.240Z,62.58
2022-12-24T18:14:13.918Z,61.90
2022-12-24T18:16:41.692Z,64.35
2022-12-24T18:19:10.971Z,61.58
2022-12-24T18:21:38.282Z,52.28
2022-12-24T18:24:05.680Z,52.22
2022-12-24T18:26:33.318Z,61.45
2022-12-24T18:29:04.310Z,56.05
2022-12-24T18:31:33.616Z,55.55
2022-12-24T18:34:02.585Z,53.58
2022-12-24T18:36:29.730Z,58.83
2022-12-24T18:38:56.743Z,68.15
2022-12-24T18:41:26.001Z,58.28
2022-12-24T18:43:53.792Z,56.97
2022-12-24T18:46:23.636Z,66.38
2022-12-24T18:48:51.351Z,62.15
2022-12-24T18:51:22.038Z,64.30
2022-12-24T18:53:49.568Z,60.80
2022-12-24T18:56:24.885Z,62.00
2022-12-24T18:58:57.384Z,62.53
2022-12-24T19:01:27.065Z,61.33
2022-12-24T19:03:54.556Z,59.83
2022-12-24T19:06:21.841Z,70.63
2022-12-24T19:08:59.228Z,57.55
2022-12-24T19:11:30.490Z,56.30
2022-12-24T19:14:00.644Z,66.68
2022-12-24T19:16:29.190Z,61.80
2022-12-24T19:18:56.521Z,56.60
2022-12-24T19:21:23.758Z,56.33
2022-12-24T19:23:51.740Z,53.03
2022-12-24T19:26:20.440Z,53.42
2022-12-24T19:28:48.077Z,58.78
2022-12-24T19:31:25.035Z,50.17
2022-12-24T19:33:57.341Z,58.78
2022-12-24T19:36:26.665Z,60.75
2022-12-24T19:38:53.879Z,56.55
2022-12-24T19:41:24.194Z,55.85
2022-12-24T19:43:53.113Z,52.67
2022-12-24T19:46:25.054Z,54.78
2022-12-24T19:48:54.944Z,55.75
2022-12-24T19:51:22.956Z,58.28
2022-12-24T19:53:50.116Z,57.88
2022-12-24T19:56:19.416Z,76.97
2022-12-24T19:58:47.081Z,75.55
2022-12-24T20:01:17.030Z,62.15
2022-12-24T20:03:45.008Z,58.78
2022-12-24T20:06:12.766Z,51.50
2022-12-24T20:08:40.296Z,51.00
2022-12-24T20:11:09.974Z,41.20
2022-12-24T20:13:38.100Z,44.45
2022-12-24T20:16:10.562Z,45.75
2022-12-24T20:18:38.016Z,54.67
2022-12-24T20:21:07.897Z,42.88
2022-12-24T20:23:37.267Z,47.33
2022-12-24T20:26:06.251Z,51.88
2022-12-24T20:28:36.722Z,53.15
2022-12-24T20:31:22.386Z,46.70
2022-12-24T20:33:49.852Z,43.30
2022-12-24T20:36:19.333Z,41.83
2022-12-24T20:38:47.350Z,44.80
2022-12-24T20:41:16.180Z,38.35
2022-12-24T20:43:48.329Z,53.78
2022-12-24T20:46:17.878Z,50.08
2022-12-24T20:48:45.170Z,48.83
2022-12-24T20:51:23.677Z,41.13
2022-12-24T20:53:57.195Z,54.20
2022-12-24T20:56:24.580Z,42.40
2022-12-24T20:58:51.739Z,41.63
2022-12-24T21:01:21.855Z,44.88
2022-12-24T21:03:49.152Z,41.30
2022-12-24T21:06:17.916Z,28.67
2022-12-24T21:08:46.448Z,40.20
2022-12-24T21:11:31.801Z,46.83
2022-12-24T21:13:59.113Z,37.45
2022-12-24T21:16:26.007Z,30.38
2022-12-24T21:18:53.027Z,37.25
2022-12-24T21:21:19.887Z,38.05
2022-12-24T21:23:46.775Z,40.35
2022-12-24T21:26:13.764Z,43.38
2022-12-24T21:28:40.891Z,27.77
2022-12-24T21:31:13.791Z,33.63
2022-12-24T21:33:41.064Z,35.88
2022-12-24T21:36:08.483Z,28.05
2022-12-24T21:38:35.849Z,30.38
2022-12-24T21:41:06.499Z,29.13
2022-12-24T21:43:35.045Z,27.65
2022-12-24T21:46:09.648Z,32.70
2022-12-24T21:48:55.995Z,28.65
2022-12-24T21:51:24.283Z,24.17
2022-12-24T21:54:09.716Z,28.23
2022-12-24T21:56:57.013Z,30.73
2022-12-24T21:59:27.124Z,31.33
2022-12-24T22:01:55.220Z,29.23
2022-12-24T22:04:22.549Z,24.52
2022-12-24T22:07:08.005Z,36.00
2022-12-24T22:09:53.991Z,28.13
2022-12-24T22:14:47.683Z,27.98
2022-12-24T22:17:19.748Z,27.38
2022-12-24T22:19:49.954Z,21.30
2022-12-24T22:22:16.826Z,32.90
2022-12-24T22:24:43.769Z,25.13
2022-12-24T22:27:10.602Z,25.08
2022-12-24T22:29:37.475Z,26.70
2022-12-24T22:32:04.412Z,27.25
2022-12-24T22:34:32.806Z,24.90
2022-12-24T22:36:59.698Z,32.28
2022-12-24T22:39:26.725Z,27.02
2022-12-24T22:41:53.682Z,30.40
2022-12-24T22:44:20.694Z,23.50
2022-12-24T22:46:47.521Z,26.50
2022-12-24T22:49:14.597Z,25.35
2022-12-24T22:51:41.498Z,21.63
2022-12-24T22:54:08.461Z,26.30
2022-12-24T22:56:40.778Z,33.10
2022-12-24T22:59:12.102Z,19.23
2022-12-24T23:01:41.303Z,25.58
2022-12-24T23:04:08.661Z,24.70
2022-12-24T23:06:35.991Z,22.80
2022-12-24T23:09:05.224Z,19.65
2022-12-24T23:11:32.343Z,20.20
2022-12-24T23:14:17.769Z,17.80
2022-12-24T23:16:44.762Z,22.70
2022-12-24T23:19:12.053Z,23.50
2022-12-24T23:21:38.972Z,23.80
2022-12-24T23:24:06.188Z,22.58
2022-12-24T23:26:33.196Z,18.33
2022-12-24T23:29:00.078Z,17.85
2022-12-24T23:31:27.303Z,18.02
2022-12-24T23:33:54.217Z,17.17
2022-12-24T23:36:21.255Z,20.20
2022-12-24T23:38:48.641Z,18.90
2022-12-24T23:41:18.632Z,22.95
2022-12-24T23:43:46.439Z,17.80
2022-12-24T23:46:18.437Z,17.85
2022-12-24T23:48:45.988Z,17.88
2022-12-24T23:51:16.215Z,17.27
2022-12-24T23:53:43.936Z,16.05
2022-12-24T23:56:12.049Z,16.08
2022-12-24T23:58:42.654Z,14.25
